Time;durP1;ratioP1;P1;durP2;ratioP2;P2;SDS_P1;SDS_P2;PMS_P1;PMS_P2;Temp;Humidity;BMP_temperature;BMP_pressure;BME280_temperature;BME280_humidity;BME280_pressure;Samples;Min_cycle;Max_cycle;Signal;HPM_P1;HPM_P2
2021/11/21 00:02:13;;;;;;;14.77;8.15;;;;;;;-142.75;100.00;77410.91;5046226;28;20109;-69
2021/11/21 00:04:39;;;;;;;12.43;7.95;;;;;;;-142.75;100.00;77424.69;5056615;27;20029;-70
2021/11/21 00:07:05;;;;;;;15.68;7.90;;;;;;;-142.75;100.00;77420.75;5047792;28;20021;-69
2021/11/21 00:09:30;;;;;;;13.20;7.45;;;;;;;-142.75;100.00;77424.69;5045844;28;20410;-69
2021/11/21 00:11:56;;;;;;;13.13;7.82;;;;;;;-142.75;100.00;77408.94;5046628;28;20028;-71
2021/11/21 00:14:21;;;;;;;18.35;9.50;;;;;;;-142.75;100.00;77403.03;5047560;28;20120;-69
2021/11/21 00:16:47;;;;;;;15.88;8.48;;;;;;;-142.75;100.00;77406.97;5046260;28;20017;-71
2021/11/21 00:19:12;;;;;;;15.73;8.52;;;;;;;-142.75;100.00;77401.06;5047065;27;20029;-71
2021/11/21 00:21:37;;;;;;;13.43;7.82;;;;;;;-142.75;100.00;77395.16;5060824;27;20040;-70
2021/11/21 00:24:03;;;;;;;12.43;8.40;;;;;;;-142.75;100.00;77381.38;5038817;27;20051;-71
2021/11/21 00:26:29;;;;;;;15.20;9.07;;;;;;;-142.75;100.00;77381.38;5072196;27;20021;-72
2021/11/21 00:28:54;;;;;;;18.25;9.52;;;;;;;-142.75;100.00;77373.50;5095738;27;20409;-70
2021/11/21 00:31:21;;;;;;;20.73;10.45;;;;;;;-142.75;100.00;77389.25;5093922;27;20032;-72
2021/11/21 00:33:46;;;;;;;16.73;10.68;;;;;;;-142.75;100.00;77385.31;5082125;27;20023;-70
2021/11/21 00:36:12;;;;;;;20.67;10.85;;;;;;;-142.75;100.00;77385.31;5060041;27;20108;-70
2021/11/21 00:38:38;;;;;;;19.65;9.88;;;;;;;-142.75;100.00;77399.09;5068329;27;20019;-70
2021/11/21 00:41:04;;;;;;;25.02;9.27;;;;;;;-142.75;100.00;77393.19;5084515;27;20074;-70
2021/11/21 00:43:29;;;;;;;13.88;8.75;;;;;;;-142.75;100.00;77410.91;5094343;27;20028;-69
2021/11/21 00:45:54;;;;;;;15.95;7.93;;;;;;;-142.75;100.00;77424.69;5047744;28;20394;-70
2021/11/21 00:48:23;;;;;;;13.35;8.40;;;;;;;-142.75;100.00;77420.75;5053343;27;20036;-69
2021/11/21 00:50:51;;;;;;;16.40;8.73;;;;;;;-142.75;100.00;77426.66;5113395;27;20023;-71
2021/11/21 00:53:16;;;;;;;16.55;8.57;;;;;;;-142.75;100.00;77424.69;5112963;27;20532;-71
2021/11/21 00:55:49;;;;;;;15.18;7.85;;;;;;;-142.75;100.00;77414.84;5074408;27;20019;-70
2021/11/21 00:58:14;;;;;;;14.57;8.10;;;;;;;-142.75;100.00;77410.91;5130845;27;20041;-70
2021/11/21 01:00:43;;;;;;;14.80;8.50;;;;;;;-142.75;100.00;77401.06;5060875;27;20033;-70
2021/11/21 01:03:12;;;;;;;13.80;7.47;;;;;;;-142.75;100.00;77401.06;5047510;27;20045;-71
2021/11/21 01:05:37;;;;;;;14.35;7.60;;;;;;;-142.75;100.00;77395.16;5046580;28;20039;-70
2021/11/21 01:08:03;;;;;;;15.05;7.38;;;;;;;-142.75;100.00;77397.13;5050898;27;20100;-70
2021/11/21 01:10:28;;;;;;;12.52;8.10;;;;;;;-142.75;100.00;77391.22;5095553;27;20074;-71
2021/11/21 01:12:54;;;;;;;12.63;8.23;;;;;;;-142.75;100.00;77389.25;5125879;27;20476;-70
2021/11/21 01:15:22;;;;;;;14.73;8.27;;;;;;;-142.75;100.00;77379.41;5131460;27;20037;-73
2021/11/21 01:17:49;;;;;;;12.50;7.22;;;;;;;-142.75;100.00;77373.50;5129843;27;20020;-70
2021/11/21 01:20:15;;;;;;;15.63;7.68;;;;;;;-142.75;100.00;77373.50;5130919;27;20015;-70
2021/11/21 01:22:41;;;;;;;15.07;8.05;;;;;;;-142.75;100.00;77383.34;5130655;27;20023;-70
2021/11/21 01:25:08;;;;;;;11.43;7.22;;;;;;;-142.75;100.00;77373.50;5061955;27;20078;-68
2021/11/21 01:27:34;;;;;;;13.90;7.20;;;;;;;-142.75;100.00;77381.38;5062605;27;20472;-68
2021/11/21 01:30:00;;;;;;;12.50;6.82;;;;;;;-142.75;100.00;77385.31;5129792;27;20038;-70
2021/11/21 01:32:26;;;;;;;17.77;6.82;;;;;;;-142.75;100.00;77363.66;5120419;27;20025;-71
2021/11/21 01:34:52;;;;;;;11.68;7.25;;;;;;;-142.75;100.00;77361.69;5095163;27;20040;-70
2021/11/21 01:37:17;;;;;;;16.48;8.07;;;;;;;-142.75;100.00;77359.72;5096889;27;20033;-69
2021/11/21 01:39:42;;;;;;;15.20;7.65;;;;;;;-142.75;100.00;77357.75;5104226;27;20110;-69
2021/11/21 01:42:08;;;;;;;13.80;7.20;;;;;;;-142.75;100.00;77357.75;5073785;27;20045;-69
2021/11/21 01:44:33;;;;;;;12.43;7.63;;;;;;;-142.75;100.00;77365.63;5078994;22;20036;-66
2021/11/21 01:46:59;;;;;;;13.95;8.55;;;;;;;-142.75;100.00;77373.50;5049497;28;20028;-66
2021/11/21 01:49:24;;;;;;;16.48;9.25;;;;;;;-142.75;100.00;77365.63;5049790;28;20025;-66
2021/11/21 01:51:50;;;;;;;11.88;7.78;;;;;;;-142.75;100.00;77359.72;5048116;28;20025;-66
2021/11/21 01:54:17;;;;;;;13.70;8.68;;;;;;;-142.75;100.00;77369.56;5049712;28;20021;-66
2021/11/21 01:56:44;;;;;;;14.20;8.75;;;;;;;-142.75;100.00;77365.63;5049695;28;20507;-66
2021/11/21 01:59:10;;;;;;;15.45;9.20;;;;;;;-142.75;100.00;77357.75;5048210;28;20394;-66
2021/11/21 02:01:35;;;;;;;16.83;8.40;;;;;;;-142.75;100.00;77357.75;5048789;28;20028;-66
2021/11/21 02:04:01;;;;;;;18.20;9.25;;;;;;;-142.75;100.00;77361.69;5047981;28;20033;-66
2021/11/21 02:06:27;;;;;;;16.33;9.75;;;;;;;-142.75;100.00;77365.63;5049882;28;20393;-67
2021/11/21 02:08:56;;;;;;;16.05;9.50;;;;;;;-142.75;100.00;77365.63;5049212;28;20470;-66
2021/11/21 02:11:22;;;;;;;19.77;9.88;;;;;;;-142.75;100.00;77373.50;5065993;28;20024;-66
2021/11/21 02:13:49;;;;;;;;;;;;;;;-142.75;100.00;77369.56;5069961;28;20173;-68
2021/11/21 02:16:16;;;;;;;15.95;9.68;;;;;;;-142.75;100.00;77361.69;5069167;28;19916;-67
2021/11/21 02:18:41;;;;;;;20.48;9.48;;;;;;;-142.75;100.00;77361.69;5069158;28;20020;-67
2021/11/21 02:21:07;;;;;;;18.33;9.65;;;;;;;-142.75;100.00;77363.66;5067023;28;20032;-67
2021/11/21 02:23:32;;;;;;;14.32;8.93;;;;;;;-142.75;100.00;77357.75;5068952;28;20089;-67
2021/11/21 02:25:58;;;;;;;17.33;10.00;;;;;;;-142.75;100.00;77357.75;5067912;28;20099;-67
2021/11/21 02:28:23;;;;;;;19.63;9.63;;;;;;;-142.75;100.00;77342.00;5067595;28;20025;-64
2021/11/21 02:30:49;;;;;;;21.77;10.75;;;;;;;-142.75;100.00;77342.00;5068285;28;20028;-67
2021/11/21 02:33:16;;;;;;;;;;;;;;;-142.75;100.00;77334.13;5069474;28;20032;-67
2021/11/21 02:35:44;;;;;;;16.45;8.95;;;;;;;-142.75;100.00;77322.31;5069568;28;20378;-66
2021/11/21 02:38:10;;;;;;;14.90;9.38;;;;;;;-142.75;100.00;77322.31;5068735;28;20142;-66
2021/11/21 02:40:36;;;;;;;14.68;8.23;;;;;;;-142.75;100.00;77318.38;5067936;28;20036;-67
2021/11/21 02:43:02;;;;;;;15.20;9.18;;;;;;;-142.75;100.00;77326.25;5068496;28;20111;-67
2021/11/21 02:45:27;;;;;;;14.20;8.95;;;;;;;-142.75;100.00;77316.41;5068695;28;20066;-67
2021/11/21 02:47:53;;;;;;;19.35;9.18;;;;;;;-142.75;100.00;77316.41;5068762;28;20108;-66
2021/11/21 02:50:22;;;;;;;16.98;9.57;;;;;;;-142.75;100.00;77314.44;5068215;28;20086;-67
2021/11/21 02:52:49;;;;;;;16.77;9.20;;;;;;;-142.75;100.00;77310.50;5068660;28;20032;-67
2021/11/21 02:55:15;;;;;;;14.65;9.90;;;;;;;-142.75;100.00;77310.50;5068814;28;20032;-67
2021/11/21 02:57:41;;;;;;;;;;;;;;;-142.75;100.00;77310.50;5067202;28;20017;-67
2021/11/21 03:00:10;;;;;;;18.38;10.60;;;;;;;-142.75;100.00;77310.50;5067879;28;20263;-67
2021/11/21 03:02:41;;;;;;;20.77;11.98;;;;;;;-142.75;100.00;77318.38;5068350;28;20126;-67
2021/11/21 03:05:07;;;;;;;17.30;11.25;;;;;;;-142.75;100.00;77310.50;5068740;28;20021;-66
2021/11/21 03:07:33;;;;;;;21.88;11.55;;;;;;;-142.75;100.00;77306.56;5068894;28;20087;-66
2021/11/21 03:09:58;;;;;;;24.00;11.75;;;;;;;-142.75;100.00;77300.66;5067688;28;20034;-67
2021/11/21 03:12:24;;;;;;;21.85;11.60;;;;;;;-142.75;100.00;77302.63;5068515;28;20052;-67
2021/11/21 03:14:51;;;;;;;20.55;11.50;;;;;;;-142.75;100.00;77306.56;5066913;28;21734;-67
2021/11/21 03:17:18;;;;;;;20.23;12.30;;;;;;;-142.75;100.00;77292.78;5068774;28;20443;-67
2021/11/21 03:19:44;;;;;;;18.98;11.63;;;;;;;-142.75;100.00;77286.88;5067453;28;20029;-64
2021/11/21 03:22:10;;;;;;;18.85;12.48;;;;;;;-142.75;100.00;77298.69;5068341;28;20508;-66
2021/11/21 03:24:35;;;;;;;18.30;10.77;;;;;;;-142.75;100.00;77296.72;5068300;28;20474;-66
2021/11/21 03:27:01;;;;;;;20.42;11.35;;;;;;;-142.75;100.00;77290.81;5068210;28;20024;-67
2021/11/21 03:29:26;;;;;;;16.98;10.18;;;;;;;-142.75;100.00;77271.13;5068182;28;20032;-66
2021/11/21 03:31:51;;;;;;;20.98;11.05;;;;;;;-142.75;100.00;77267.19;5067614;28;20024;-66
2021/11/21 03:34:17;;;;;;;17.73;10.65;;;;;;;-142.75;100.00;77271.13;5068497;28;20036;-66
2021/11/21 03:36:42;;;;;;;22.38;11.73;;;;;;;-142.75;100.00;77249.47;5068863;28;20367;-66
2021/11/21 03:39:08;;;;;;;15.95;10.63;;;;;;;-142.75;100.00;77243.56;5068113;28;20029;-66
2021/11/21 03:41:36;;;;;;;17.15;10.55;;;;;;;-142.75;100.00;77223.88;5067172;28;20073;-66
2021/11/21 03:44:02;;;;;;;20.83;10.68;;;;;;;-142.75;100.00;77231.75;5066611;28;20032;-66
2021/11/21 03:46:27;;;;;;;;;;;;;;;-142.75;100.00;77225.84;5068357;28;20107;-66
2021/11/21 03:48:52;;;;;;;20.27;11.52;;;;;;;-142.75;100.00;77239.63;5068212;28;20023;-66
2021/11/21 03:51:18;;;;;;;17.13;11.00;;;;;;;-142.75;100.00;77229.78;5067614;28;20032;-66
2021/11/21 03:53:43;;;;;;;13.98;8.88;;;;;;;-142.75;100.00;77253.41;5067864;28;20031;-66
2021/11/21 03:56:09;;;;;;;14.32;9.45;;;;;;;-142.75;100.00;77247.50;5066640;28;20020;-66
2021/11/21 03:58:34;;;;;;;10.60;5.88;;;;;;;-142.75;100.00;77243.56;5068106;28;20470;-66
2021/11/21 04:01:00;;;;;;;11.10;4.22;;;;;;;-142.75;100.00;77249.47;5066987;28;20028;-67
2021/11/21 04:03:26;;;;;;;8.10;2.47;;;;;;;-142.75;100.00;77267.19;5066601;28;20020;-66
2021/11/21 04:05:51;;;;;;;;;;;;;;;-142.75;100.00;77275.06;5068735;28;20158;-66
2021/11/21 04:08:17;;;;;;;6.95;1.27;;;;;;;-142.75;100.00;77271.13;5068171;28;20022;-66
2021/11/21 04:10:43;;;;;;;2.15;1.00;;;;;;;-142.75;100.00;77286.88;5067145;28;20500;-66
2021/11/21 04:13:09;;;;;;;3.10;0.73;;;;;;;-142.75;100.00;77277.03;5067712;28;20021;-66
2021/11/21 04:15:35;;;;;;;5.30;0.90;;;;;;;-142.75;100.00;77282.94;5070213;28;20048;-66
2021/11/21 04:18:00;;;;;;;3.47;0.65;;;;;;;-142.75;100.00;77275.06;5071374;28;20105;-66
2021/11/21 04:20:25;;;;;;;3.90;0.88;;;;;;;-142.75;100.00;77279.00;5070736;28;20375;-66
2021/11/21 04:22:51;;;;;;;5.28;0.82;;;;;;;-142.75;100.00;77275.06;5071198;28;20020;-66
2021/11/21 04:25:17;;;;;;;6.45;0.95;;;;;;;-142.75;100.00;77271.13;5070438;28;20028;-66
2021/11/21 04:27:42;;;;;;;4.68;0.70;;;;;;;-142.75;100.00;77271.13;5070880;28;20063;-66
2021/11/21 04:30:11;;;;;;;6.93;0.70;;;;;;;-142.75;100.00;77263.25;5070461;28;20442;-65
2021/11/21 04:32:37;;;;;;;8.38;1.23;;;;;;;-142.75;100.00;77271.13;5070612;28;20493;-66
2021/11/21 04:35:09;;;;;;;5.95;0.80;;;;;;;-142.75;100.00;77273.09;5071349;28;20497;-66
2021/11/21 04:37:35;;;;;;;5.78;0.90;;;;;;;-142.75;100.00;77282.94;5071867;28;20467;-66
2021/11/21 04:40:01;;;;;;;6.43;0.80;;;;;;;-142.75;100.00;77271.13;5069997;28;20024;-66
2021/11/21 04:42:26;;;;;;;2.15;0.50;;;;;;;-142.75;100.00;77267.19;5069709;28;20075;-66
2021/11/21 04:44:51;;;;;;;10.05;1.48;;;;;;;-142.75;100.00;77265.22;5070671;28;20022;-65
2021/11/21 04:47:17;;;;;;;9.48;1.20;;;;;;;-142.75;100.00;77275.06;5071068;28;20040;-66
2021/11/21 04:49:42;;;;;;;6.35;0.68;;;;;;;-142.75;100.00;77277.03;5069916;28;20024;-66
2021/11/21 04:52:08;;;;;;;4.88;1.02;;;;;;;-142.75;100.00;77267.19;5071008;28;20036;-66
2021/11/21 04:54:34;;;;;;;;;;;;;;;-142.75;100.00;77273.09;5070745;28;20029;-66
2021/11/21 04:56:59;;;;;;;7.18;0.70;;;;;;;-142.75;100.00;77269.16;5070952;28;19917;-67
2021/11/21 04:59:24;;;;;;;4.63;0.75;;;;;;;-142.75;100.00;77277.03;5072456;28;20489;-67
2021/11/21 05:01:49;;;;;;;8.65;1.10;;;;;;;-142.75;100.00;77279.00;5074464;28;20051;-66
2021/11/21 05:04:15;;;;;;;5.10;0.88;;;;;;;-142.75;100.00;77286.88;5071647;28;20017;-67
2021/11/21 05:06:40;;;;;;;4.15;0.70;;;;;;;-142.75;100.00;77279.00;5071167;28;20024;-67
2021/11/21 05:09:06;;;;;;;7.68;0.73;;;;;;;-142.75;100.00;77304.59;5070211;28;20115;-66
2021/11/21 05:11:32;;;;;;;6.75;0.73;;;;;;;-142.75;100.00;77296.72;5070097;28;20086;-66
2021/11/21 05:13:59;;;;;;;6.43;0.63;;;;;;;-142.75;100.00;77300.66;5070976;28;20032;-66
2021/11/21 05:16:24;;;;;;;7.80;1.08;;;;;;;-142.75;100.00;77300.66;5071011;28;20126;-66
2021/11/21 05:18:50;;;;;;;7.35;0.80;;;;;;;-142.75;100.00;77308.53;5070951;28;20040;-66
2021/11/21 05:21:15;;;;;;;4.75;0.50;;;;;;;-142.75;100.00;77324.28;5070509;28;20385;-66
2021/11/21 05:23:40;;;;;;;4.90;0.60;;;;;;;-142.75;100.00;77320.34;5070789;28;20739;-66
2021/11/21 05:26:06;;;;;;;3.97;0.73;;;;;;;-142.75;100.00;77318.38;5069391;28;20125;-66
2021/11/21 05:28:31;;;;;;;5.72;0.68;;;;;;;-142.75;100.00;77310.50;5070738;28;20031;-66
2021/11/21 05:30:56;;;;;;;11.70;1.27;;;;;;;-142.75;100.00;77314.44;5069802;28;20024;-66
2021/11/21 05:33:22;;;;;;;7.28;1.27;;;;;;;-142.75;100.00;77314.44;5070370;28;20035;-66
2021/11/21 05:35:47;;;;;;;8.25;1.00;;;;;;;-142.75;100.00;77332.16;5071085;28;20020;-67
2021/11/21 05:38:13;;;;;;;9.60;0.60;;;;;;;-142.75;100.00;77330.19;5070685;28;20490;-66
2021/11/21 05:40:38;;;;;;;3.30;0.60;;;;;;;-142.75;100.00;77338.06;5069732;28;20097;-66
2021/11/21 05:43:03;;;;;;;10.55;0.93;;;;;;;-142.75;100.00;77322.31;5070216;28;20027;-67
2021/11/21 05:45:29;;;;;;;4.35;0.60;;;;;;;-142.75;100.00;77314.44;5070500;28;20098;-66
2021/11/21 05:47:55;;;;;;;6.88;0.93;;;;;;;-142.75;100.00;77302.63;5070324;28;20039;-66
2021/11/21 05:50:21;;;;;;;4.28;0.82;;;;;;;-142.75;100.00;77290.81;5069689;28;20024;-66
2021/11/21 05:52:48;;;;;;;8.55;0.93;;;;;;;-142.75;100.00;77280.97;5070363;28;20029;-66
2021/11/21 05:55:15;;;;;;;7.70;1.10;;;;;;;-142.75;100.00;77279.00;5070493;28;20024;-67
2021/11/21 05:57:41;;;;;;;5.90;0.75;;;;;;;-142.75;100.00;77279.00;5070270;28;20055;-66
2021/11/21 06:00:09;;;;;;;11.05;1.17;;;;;;;-142.75;100.00;77271.13;5069418;28;20068;-66
2021/11/21 06:02:34;;;;;;;8.15;0.85;;;;;;;-142.75;100.00;77269.16;5070156;28;20416;-66
2021/11/21 06:05:00;;;;;;;7.03;0.65;;;;;;;-142.75;100.00;77279.00;5069996;28;20028;-66
2021/11/21 06:07:25;;;;;;;13.50;1.33;;;;;;;-142.75;100.00;77282.94;5069937;28;20013;-66
2021/11/21 06:09:50;;;;;;;7.03;0.88;;;;;;;-142.75;100.00;77300.66;5069100;28;20032;-66
2021/11/21 06:12:16;;;;;;;7.07;0.63;;;;;;;-142.75;100.00;77300.66;5070301;28;20139;-66
2021/11/21 06:14:41;;;;;;;8.63;1.10;;;;;;;-142.75;100.00;77302.63;5069865;28;20035;-66
2021/11/21 06:17:08;;;;;;;9.20;1.20;;;;;;;-142.75;100.00;77300.66;5068535;28;20021;-65
2021/11/21 06:19:35;;;;;;;7.63;0.77;;;;;;;-142.75;100.00;77282.94;5069852;28;20028;-66
2021/11/21 06:22:00;;;;;;;9.32;0.80;;;;;;;-142.75;100.00;77304.59;5069014;28;20021;-66
2021/11/21 06:24:25;;;;;;;12.40;0.90;;;;;;;-142.75;100.00;77302.63;5068496;28;20020;-66
2021/11/21 06:26:51;;;;;;;11.95;1.42;;;;;;;-142.75;100.00;77306.56;5069528;28;20024;-65
2021/11/21 06:29:17;;;;;;;7.15;1.45;;;;;;;-142.75;100.00;77292.78;5069909;28;20480;-66
2021/11/21 06:31:43;;;;;;;8.75;1.30;;;;;;;-142.75;100.00;77308.53;5068804;28;20061;-66
2021/11/21 06:34:08;;;;;;;9.45;1.25;;;;;;;-142.75;100.00;77322.31;5069460;28;20028;-66
2021/11/21 06:36:34;;;;;;;9.35;1.38;;;;;;;-142.75;100.00;77322.31;5069277;28;20117;-66
2021/11/21 06:38:59;;;;;;;12.45;1.13;;;;;;;-142.75;100.00;77318.38;5068970;28;20019;-66
2021/11/21 06:41:24;;;;;;;9.48;0.93;;;;;;;-142.75;100.00;77316.41;5066525;28;20101;-66
2021/11/21 06:43:49;;;;;;;9.38;1.10;;;;;;;-142.75;100.00;77334.13;5068128;28;20034;-66
2021/11/21 06:46:15;;;;;;;13.40;1.70;;;;;;;-142.75;100.00;77336.09;5068535;28;20029;-66
2021/11/21 06:48:41;;;;;;;8.65;1.00;;;;;;;-142.75;100.00;77332.16;5066744;28;20282;-66
2021/11/21 06:51:07;;;;;;;8.32;1.00;;;;;;;-142.75;100.00;77318.38;5067183;28;20060;-66
2021/11/21 06:53:33;;;;;;;12.98;1.05;;;;;;;-142.75;100.00;77314.44;5066597;28;20500;-67
2021/11/21 06:55:58;;;;;;;8.82;0.95;;;;;;;-142.75;100.00;77324.28;5067764;28;20478;-67
2021/11/21 06:58:26;;;;;;;7.50;1.38;;;;;;;-142.75;100.00;77328.22;5067953;28;20135;-66
2021/11/21 07:00:52;;;;;;;14.18;1.30;;;;;;;-142.75;100.00;77326.25;5067088;28;20031;-66
2021/11/21 07:03:17;;;;;;;7.55;0.98;;;;;;;-142.75;100.00;77342.00;5068115;28;20033;-66
2021/11/21 07:05:43;;;;;;;8.90;1.00;;;;;;;-142.75;100.00;77373.50;5067660;28;20027;-66
2021/11/21 07:08:08;;;;;;;10.65;1.02;;;;;;;-142.75;100.00;77373.50;5068265;28;20024;-66
2021/11/21 07:10:33;;;;;;;16.40;1.10;;;;;;;-142.75;100.00;77377.44;5067027;28;20036;-66
2021/11/21 07:13:01;;;;;;;5.05;0.75;;;;;;;-142.75;100.00;77377.44;5067660;28;20078;-66
2021/11/21 07:15:27;;;;;;;7.93;1.02;;;;;;;-142.75;100.00;77377.44;5067512;28;20547;-66
2021/11/21 07:17:53;;;;;;;8.97;1.50;;;;;;;-142.75;100.00;77375.47;5067654;28;20103;-66
2021/11/21 07:20:19;;;;;;;8.05;1.02;;;;;;;-142.75;100.00;77397.13;5067137;28;20289;-66
2021/11/21 07:22:46;;;;;;;14.32;1.00;;;;;;;-142.75;100.00;77401.06;5066180;28;20047;-66
2021/11/21 07:25:12;;;;;;;9.43;1.00;;;;;;;-142.75;100.00;77422.72;5067592;28;20051;-66
2021/11/21 07:27:38;;;;;;;7.47;1.08;;;;;;;-142.75;100.00;77438.47;5067509;28;20052;-66
2021/11/21 07:30:04;;;;;;;4.45;1.02;;;;;;;-142.75;100.00;77432.56;5066666;28;20055;-66
2021/11/21 07:32:29;;;;;;;6.72;0.90;;;;;;;-142.75;100.00;77428.63;5068341;28;20398;-66
2021/11/21 07:34:54;;;;;;;12.35;1.15;;;;;;;-142.75;100.00;77432.56;5068176;28;20020;-66
2021/11/21 07:37:20;;;;;;;10.85;1.35;;;;;;;-142.75;100.00;77438.47;5068414;28;20470;-66
2021/11/21 07:39:45;;;;;;;5.95;1.20;;;;;;;-142.75;100.00;77442.41;5067790;28;20031;-65
2021/11/21 07:42:10;;;;;;;13.38;1.13;;;;;;;-142.75;100.00;77434.53;5068083;28;20028;-66
2021/11/21 07:44:35;;;;;;;9.70;1.35;;;;;;;-142.75;100.00;77448.34;5089019;22;20048;-71
2021/11/21 07:47:01;;;;;;;7.30;0.97;;;;;;;-142.75;100.00;77446.34;5050152;28;20035;-70
2021/11/21 07:49:26;;;;;;;11.13;1.45;;;;;;;-142.75;100.00;77460.13;5051367;28;20681;-70
2021/11/21 07:51:52;;;;;;;6.97;1.13;;;;;;;-142.75;100.00;77458.16;5071768;28;20056;-71
2021/11/21 07:54:17;;;;;;;5.75;1.05;;;;;;;-142.75;100.00;77444.38;5071208;28;20094;-71
2021/11/21 07:56:42;;;;;;;8.05;1.42;;;;;;;-142.75;100.00;77438.47;5072487;28;20389;-70
2021/11/21 07:59:09;;;;;;;13.93;1.00;;;;;;;-142.75;100.00;77460.13;5072268;28;20039;-70
2021/11/21 08:01:34;;;;;;;13.95;1.83;;;;;;;-142.75;100.00;77456.22;5047864;28;20700;-70
2021/11/21 08:04:00;;;;;;;10.43;1.40;;;;;;;-142.75;100.00;77452.25;5053187;28;20066;-71
2021/11/21 08:06:25;;;;;;;13.38;1.30;;;;;;;-142.75;100.00;77448.34;5044556;28;20040;-70
2021/11/21 08:08:50;;;;;;;9.15;1.30;;;;;;;-142.75;100.00;77456.22;5052154;28;20552;-70
2021/11/21 08:11:15;;;;;;;7.97;1.58;;;;;;;-142.75;100.00;77460.13;5052015;28;20035;-71
2021/11/21 08:13:41;;;;;;;10.48;1.15;;;;;;;-142.75;100.00;77466.03;5052108;28;20475;-71
2021/11/21 08:16:06;;;;;;;12.20;1.30;;;;;;;-142.75;100.00;77460.13;5035493;28;20028;-70
2021/11/21 08:18:31;;;;;;;12.90;1.42;;;;;;;-142.75;100.00;77466.03;5072115;28;20016;-71
2021/11/21 08:20:57;;;;;;;14.85;1.50;;;;;;;-142.75;100.00;77464.09;5071158;28;20497;-70
2021/11/21 08:23:23;;;;;;;8.85;1.27;;;;;;;-142.75;100.00;77468.03;5072094;28;20028;-70
2021/11/21 08:25:49;;;;;;;6.80;0.88;;;;;;;-142.75;100.00;77452.25;5071953;28;20517;-69
2021/11/21 08:28:14;;;;;;;14.77;1.40;;;;;;;-142.75;100.00;77464.09;5072261;28;20036;-71
2021/11/21 08:30:39;;;;;;;14.05;2.22;;;;;;;-142.75;100.00;77460.13;5052998;28;20034;-71
2021/11/21 08:33:06;;;;;;;9.52;1.15;;;;;;;-142.75;100.00;77452.25;5053844;28;20111;-71
2021/11/21 08:35:32;;;;;;;10.43;1.83;;;;;;;-142.75;100.00;77454.25;5071332;28;20036;-71
2021/11/21 08:37:57;;;;;;;17.35;1.23;;;;;;;-142.75;100.00;77446.34;5071769;28;20027;-71
2021/11/21 08:40:23;;;;;;;12.07;1.70;;;;;;;-142.75;100.00;77442.41;5070762;28;20478;-71
2021/11/21 08:42:48;;;;;;;7.93;1.48;;;;;;;-142.75;100.00;77438.47;5071649;28;20021;-69
2021/11/21 08:45:14;;;;;;;14.60;1.77;;;;;;;-142.75;100.00;77428.63;5071678;28;20390;-71
2021/11/21 08:47:41;;;;;;;12.43;1.50;;;;;;;-142.75;100.00;77440.44;5071357;28;20028;-71
2021/11/21 08:50:08;;;;;;;7.88;1.35;;;;;;;-142.75;100.00;77428.63;5070488;28;20108;-71
2021/11/21 08:52:34;;;;;;;11.15;1.45;;;;;;;-142.75;100.00;77420.75;5053488;28;20477;-71
2021/11/21 08:55:00;;;;;;;14.90;1.90;;;;;;;-142.75;100.00;77408.94;5069429;28;20038;-71
2021/11/21 08:57:25;;;;;;;13.52;1.42;;;;;;;-142.75;100.00;77410.91;5031632;28;20108;-70
2021/11/21 08:59:51;;;;;;;6.18;1.58;;;;;;;-142.75;100.00;77405.00;5032360;28;20056;-71
2021/11/21 09:02:16;;;;;;;6.97;0.98;;;;;;;-142.75;100.00;77412.88;5050007;28;20029;-73
2021/11/21 09:04:41;;;;;;;9.45;1.30;;;;;;;-142.75;100.00;77406.97;5049414;28;20036;-73
2021/11/21 09:07:07;;;;;;;9.98;1.42;;;;;;;-142.75;100.00;77397.13;5042503;28;20433;-72
2021/11/21 09:09:33;;;;;;;8.60;1.67;;;;;;;-142.75;100.00;77397.13;5049252;28;20025;-71
2021/11/21 09:11:58;;;;;;;;;;;;;;;-142.75;100.00;77399.09;5050580;28;20040;-71
2021/11/21 09:14:25;;;;;;;9.25;1.30;;;;;;;-142.75;100.00;77395.16;5032946;28;20314;-71
2021/11/21 09:16:50;;;;;;;14.77;1.50;;;;;;;-142.75;100.00;77393.19;5032892;28;20052;-70
2021/11/21 09:19:16;;;;;;;12.73;1.33;;;;;;;-142.75;100.00;77385.31;5052334;28;20438;-70
2021/11/21 09:21:42;;;;;;;13.82;2.00;;;;;;;-142.75;100.00;77373.50;5069842;28;20282;-70
2021/11/21 09:24:08;;;;;;;10.82;1.33;;;;;;;-142.75;100.00;77369.56;5070485;28;20434;-70
2021/11/21 09:26:34;;;;;;;8.18;0.70;;;;;;;-142.75;100.00;77342.00;5069849;28;20058;-70
2021/11/21 09:28:59;;;;;;;14.43;2.65;;;;;;;-142.75;100.00;77328.22;5052803;28;20452;-70
2021/11/21 09:31:25;;;;;;;16.50;3.45;;;;;;;-142.75;100.00;77263.25;5069849;28;20024;-71
2021/11/21 09:33:50;;;;;;;5.93;1.40;;;;;;;-142.75;100.00;77206.16;5061206;28;20060;-70
2021/11/21 09:36:16;;;;;;;11.23;1.23;;;;;;;-142.75;100.00;77145.13;5032865;28;20197;-71
2021/11/21 09:38:41;;;;;;;8.65;1.40;;;;;;;-142.75;100.00;77141.19;5069247;28;20046;-71
2021/11/21 09:41:07;;;;;;;13.95;1.30;;;;;;;-142.75;100.00;77143.16;5069839;28;20026;-71
2021/11/21 09:43:32;;;;;;;13.75;1.52;;;;;;;-142.75;100.00;77137.25;5070319;28;20052;-70
2021/11/21 09:46:00;;;;;;;11.05;1.23;;;;;;;-142.75;100.00;77127.41;5052613;28;20520;-71
2021/11/21 09:48:34;;;;;;;10.13;1.15;;;;;;;-142.75;100.00;77147.09;5070056;28;20024;-71
2021/11/21 09:51:01;;;;;;;16.02;1.83;;;;;;;-142.75;100.00;77158.91;5069692;28;20082;-71
2021/11/21 09:53:26;;;;;;;13.55;1.50;;;;;;;-142.75;100.00;77156.94;5052093;28;20047;-71
2021/11/21 09:55:52;;;;;;;9.57;1.67;;;;;;;-142.75;100.00;77182.53;5070027;28;20146;-71
2021/11/21 09:58:17;;;;;;;11.88;1.63;;;;;;;-142.75;100.00;77202.22;5070466;28;20056;-71
2021/11/21 10:00:43;;;;;;;8.80;1.50;;;;;;;-142.75;100.00;77210.09;5042302;28;20044;-71
2021/11/21 10:03:11;;;;;;;11.32;1.17;;;;;;;-142.75;100.00;77245.53;5059640;28;20048;-71
2021/11/21 10:05:50;;;;;;;8.25;1.40;;;;;;;-142.75;100.00;77247.50;5058647;28;20035;-71
2021/11/21 10:08:19;;;;;;;13.23;1.05;;;;;;;-142.75;100.00;77219.94;5052734;28;20048;-71
2021/11/21 10:10:45;;;;;;;7.43;1.52;;;;;;;-142.75;100.00;77149.06;5049335;28;20067;-71
2021/11/21 10:13:29;;;;;;;9.40;1.20;;;;;;;-142.75;95.91;77078.19;5049175;28;20055;-71
2021/11/21 10:15:57;;;;;;;9.13;1.10;;;;;;;-142.75;93.28;77003.38;5049784;28;20035;-71
2021/11/21 10:18:22;;;;;;;12.32;1.30;;;;;;;-142.75;88.42;76952.19;5031887;28;20105;-71
2021/11/21 10:20:49;;;;;;;14.98;1.80;;;;;;;-142.75;86.01;76897.06;5049318;28;20107;-71
2021/11/21 10:23:15;;;;;;;9.55;1.13;;;;;;;-142.75;83.70;76891.16;5050045;28;20478;-71
2021/11/21 10:25:52;;;;;;;6.63;1.25;;;;;;;-142.75;82.29;76814.38;5030055;28;20035;-71
2021/11/21 10:28:21;;;;;;;12.63;1.50;;;;;;;-142.75;80.60;76798.66;5049979;28;20115;-71
2021/11/21 10:31:06;;;;;;;12.07;1.20;;;;;;;-142.75;79.31;76777.00;5050080;28;20397;-71
2021/11/21 10:33:33;;;;;;;10.77;1.45;;;;;;;-142.75;78.01;76751.41;5051484;28;20090;-71
2021/11/21 10:36:16;;;;;;;7.38;1.02;;;;;;;-142.75;76.11;76684.47;5069514;28;20028;-71
2021/11/21 10:38:46;;;;;;;9.10;1.10;;;;;;;-142.75;74.84;76676.59;5068515;28;20028;-71
2021/11/21 10:41:13;;;;;;;13.30;1.30;;;;;;;-142.75;75.05;76680.53;5064983;28;20108;-71
2021/11/21 10:43:46;;;;;;;11.70;1.05;;;;;;;-142.75;74.50;76641.16;5069315;28;20103;-72
2021/11/21 10:46:43;;;;;;;6.10;0.82;;;;;;;-142.75;74.96;76660.84;5069496;28;20024;-71
2021/11/21 10:49:23;;;;;;;7.53;1.15;;;;;;;-142.75;75.97;76704.16;5069523;28;20029;-71
2021/11/21 10:51:57;;;;;;;7.93;1.17;;;;;;;-142.75;75.94;76757.31;5068813;28;20032;-71
2021/11/21 10:54:28;;;;;;;11.40;1.13;;;;;;;-142.75;76.90;76834.06;5069099;28;20035;-71
2021/11/21 10:56:56;;;;;;;7.25;1.00;;;;;;;-142.75;77.62;76891.16;5069299;28;20032;-71
2021/11/21 10:59:49;;;;;;;7.35;1.30;;;;;;;-142.75;79.19;76975.81;5050829;28;20032;-71
2021/11/21 11:02:28;;;;;;;3.40;0.45;;;;;;;-142.75;81.54;76964.00;5069333;28;20386;-71
2021/11/21 11:05:20;;;;;;;7.22;0.90;;;;;;;-142.75;81.33;76952.19;5068697;28;20078;-68